Time;durP1;ratioP1;P1;durP2;ratioP2;P2;SDS_P1;SDS_P2;PMS_P1;PMS_P2;Temp;Humidity;BMP_temperature;BMP_pressure;BME280_temperature;BME280_humidity;BME280_pressure;Samples;Min_cycle;Max_cycle;Signal;HPM_P1;HPM_P2
2023/10/25 00:01:31;;;;;;;10.48;1.75;;;;;;;8.02;100.00;99976.84;5001077;28;20069;-68
2023/10/25 00:03:56;;;;;;;4.25;2.05;;;;;;;7.97;100.00;99973.94;4982150;28;20802;-68
2023/10/25 00:06:22;;;;;;;5.68;1.75;;;;;;;7.94;100.00;99975.03;4983954;28;20045;-68
2023/10/25 00:08:47;;;;;;;5.88;1.90;;;;;;;7.93;100.00;99964.88;4984090;28;20041;-68
2023/10/25 00:11:13;;;;;;;7.57;1.65;;;;;;;7.90;100.00;99966.00;4998693;28;20042;-68
2023/10/25 00:13:38;;;;;;;6.60;1.75;;;;;;;7.88;100.00;99973.09;5000736;28;20480;-68
2023/10/25 00:16:04;;;;;;;5.85;1.50;;;;;;;7.85;100.00;99968.25;4977528;28;20463;-68
2023/10/25 00:18:30;;;;;;;3.97;1.67;;;;;;;7.84;100.00;99969.22;5001609;28;20065;-68
2023/10/25 00:20:55;;;;;;;7.35;1.92;;;;;;;7.82;100.00;99973.75;4983274;28;20125;-68
2023/10/25 00:23:21;;;;;;;11.15;2.35;;;;;;;7.80;100.00;99980.84;4981573;28;20085;-68
2023/10/25 00:25:48;;;;;;;6.10;1.40;;;;;;;7.77;100.00;99976.00;4997182;28;20030;-68
2023/10/25 00:28:14;;;;;;;2.83;1.52;;;;;;;7.75;100.00;99973.56;4999498;28;20104;-68
2023/10/25 00:30:40;;;;;;;3.78;1.63;;;;;;;7.73;100.00;99979.84;4970945;28;20524;-68
2023/10/25 00:33:05;;;;;;;5.68;2.20;;;;;;;7.71;100.00;99977.41;4986507;28;20068;-68
2023/10/25 00:35:31;;;;;;;6.10;2.28;;;;;;;7.69;100.00;99974.19;4980675;28;20065;-68
2023/10/25 00:37:57;;;;;;;5.32;1.60;;;;;;;7.66;100.00;99984.03;4982283;28;20045;-68
2023/10/25 00:40:23;;;;;;;8.02;1.63;;;;;;;7.62;100.00;99978.34;4979440;28;20688;-68
2023/10/25 00:42:49;;;;;;;6.32;1.60;;;;;;;7.58;100.00;99985.59;4981345;28;20037;-68
2023/10/25 00:45:14;;;;;;;3.63;1.55;;;;;;;7.54;100.00;99979.16;4976841;28;20480;-68
2023/10/25 00:47:41;;;;;;;4.32;1.48;;;;;;;7.52;100.00;99973.34;4982434;28;20038;-68
2023/10/25 00:50:09;;;;;;;4.00;1.48;;;;;;;7.50;100.00;99969.31;4980542;28;20075;-68
2023/10/25 00:52:36;;;;;;;4.85;1.65;;;;;;;7.47;100.00;99970.41;5002860;28;20045;-68
2023/10/25 00:55:03;;;;;;;6.38;1.83;;;;;;;7.46;100.00;99968.81;4979237;28;20046;-69
2023/10/25 00:57:29;;;;;;;2.60;1.50;;;;;;;7.45;100.00;99963.78;4981857;28;20203;-68
2023/10/25 00:59:55;;;;;;;10.00;1.80;;;;;;;7.45;100.00;99963.78;4996381;28;20041;-68
2023/10/25 01:02:20;;;;;;;7.70;1.92;;;;;;;7.43;100.00;99963.94;4985910;28;20038;-68
2023/10/25 01:04:46;;;;;;;5.22;1.90;;;;;;;7.43;100.00;99958.00;4995468;28;20045;-68
2023/10/25 01:07:12;;;;;;;7.95;1.52;;;;;;;7.43;100.00;99956.22;4983933;28;20046;-68
2023/10/25 01:09:38;;;;;;;6.63;1.52;;;;;;;7.43;100.00;99969.09;4980745;28;20025;-68
2023/10/25 01:12:04;;;;;;;4.25;1.90;;;;;;;7.41;100.00;99958.13;4996052;28;20049;-68
2023/10/25 01:14:33;;;;;;;7.85;2.05;;;;;;;7.40;100.00;99962.50;4983269;28;20108;-68
2023/10/25 01:16:59;;;;;;;8.85;1.95;;;;;;;7.40;100.00;99965.06;4986840;28;20070;-68
2023/10/25 01:19:24;;;;;;;7.55;1.80;;;;;;;7.38;100.00;99961.84;4996316;28;20037;-68
2023/10/25 01:21:51;;;;;;;4.85;1.83;;;;;;;7.38;100.00;99961.03;4971331;28;20455;-68
2023/10/25 01:24:16;;;;;;;3.22;1.80;;;;;;;7.39;100.00;99962.66;4978254;28;20088;-68
2023/10/25 01:26:42;;;;;;;9.80;2.00;;;;;;;7.42;100.00;99952.00;4966682;28;20053;-68
2023/10/25 01:29:07;;;;;;;5.70;1.88;;;;;;;7.41;100.00;99950.41;4981024;28;20033;-68
2023/10/25 01:31:33;;;;;;;4.70;2.00;;;;;;;7.40;100.00;99947.03;4997609;28;20399;-68
2023/10/25 01:33:59;;;;;;;11.23;2.15;;;;;;;7.45;100.00;99950.91;4983134;28;20100;-68
2023/10/25 01:36:24;;;;;;;8.32;2.42;;;;;;;7.49;100.00;99942.69;4992606;28;20042;-68
2023/10/25 01:38:50;;;;;;;4.97;2.35;;;;;;;7.58;100.00;99940.94;4968409;28;20038;-68
2023/10/25 01:41:16;;;;;;;8.68;2.13;;;;;;;7.47;100.00;99936.88;4997175;28;20034;-68
2023/10/25 01:43:43;;;;;;;10.85;3.38;;;;;;;7.48;100.00;99940.25;4989901;28;20050;-68
2023/10/25 01:46:08;;;;;;;8.32;2.45;;;;;;;7.42;100.00;99928.78;4967229;28;20412;-68
2023/10/25 01:48:38;;;;;;;10.27;2.80;;;;;;;7.51;100.00;99922.69;4994476;28;20091;-68
2023/10/25 01:51:08;;;;;;;9.77;2.90;;;;;;;7.44;100.00;99923.47;4996784;28;20025;-68
2023/10/25 01:53:34;;;;;;;7.38;2.60;;;;;;;7.49;100.00;99921.25;4980448;28;22131;-68
2023/10/25 01:56:00;;;;;;;7.70;2.55;;;;;;;7.51;100.00;99919.31;4994883;28;20061;-68
2023/10/25 01:58:26;;;;;;;8.57;2.97;;;;;;;7.49;100.00;99916.88;4989536;28;20095;-68
2023/10/25 02:00:51;;;;;;;6.32;2.55;;;;;;;7.42;100.00;99918.47;4979365;28;20030;-68
2023/10/25 02:03:17;;;;;;;11.70;2.47;;;;;;;7.35;100.00;99918.31;4995170;28;20092;-68
2023/10/25 02:05:43;;;;;;;7.55;2.20;;;;;;;7.29;100.00;99906.03;4982965;28;20030;-68
2023/10/25 02:08:08;;;;;;;5.43;2.72;;;;;;;7.29;100.00;99903.47;4988700;28;20045;-68
2023/10/25 02:10:34;;;;;;;6.55;3.17;;;;;;;7.31;100.00;99886.06;4981045;28;20077;-68
2023/10/25 02:13:00;;;;;;;8.00;2.67;;;;;;;7.28;100.00;99893.28;5001724;28;20034;-68
2023/10/25 02:15:27;;;;;;;9.88;3.47;;;;;;;7.31;100.00;99891.22;4980707;28;20038;-68
2023/10/25 02:17:52;;;;;;;9.43;3.08;;;;;;;7.26;100.00;99883.13;4980512;28;20281;-68
2023/10/25 02:20:18;;;;;;;10.60;3.65;;;;;;;7.19;100.00;99895.03;4970394;28;20515;-68
2023/10/25 02:22:43;;;;;;;13.55;3.00;;;;;;;7.15;100.00;99884.22;4983865;28;20052;-68
2023/10/25 02:25:09;;;;;;;11.80;3.90;;;;;;;7.24;100.00;99886.84;4995956;28;20034;-68
2023/10/25 02:27:34;;;;;;;14.07;4.40;;;;;;;7.26;100.00;99885.72;4986302;28;20044;-68
2023/10/25 02:30:00;;;;;;;8.45;3.92;;;;;;;7.23;100.00;99880.84;4996669;28;20050;-68
2023/10/25 02:32:25;;;;;;;12.63;3.88;;;;;;;7.16;100.00;99878.09;4984923;28;20046;-68
2023/10/25 02:34:51;;;;;;;7.65;3.58;;;;;;;7.08;100.00;99875.47;4987691;28;20045;-68
2023/10/25 02:37:17;;;;;;;6.63;2.78;;;;;;;7.06;100.00;99877.41;4984829;28;20602;-68
2023/10/25 02:39:42;;;;;;;11.00;3.33;;;;;;;7.02;100.00;99873.53;4998349;28;20438;-68
2023/10/25 02:42:08;;;;;;;6.75;3.25;;;;;;;7.03;100.00;99875.16;4983503;28;20052;-68
2023/10/25 02:44:34;;;;;;;10.27;3.75;;;;;;;7.15;100.00;99876.47;4983980;28;20499;-68
2023/10/25 02:46:59;;;;;;;13.30;3.55;;;;;;;7.08;100.00;99866.94;4994064;28;20035;-68
2023/10/25 02:49:25;;;;;;;8.32;4.05;;;;;;;7.04;100.00;99869.03;4986461;28;20038;-68
2023/10/25 02:51:50;;;;;;;14.15;4.38;;;;;;;7.08;100.00;99867.75;4984106;28;20042;-69
2023/10/25 02:54:16;;;;;;;7.45;4.38;;;;;;;7.05;100.00;99859.53;4990525;28;20033;-68
2023/10/25 02:56:42;;;;;;;12.57;4.65;;;;;;;7.06;100.00;99856.00;4993957;28;20036;-68
2023/10/25 02:59:07;;;;;;;12.00;3.72;;;;;;;7.00;100.00;99847.91;4967878;28;20044;-68
2023/10/25 03:01:33;;;;;;;12.55;5.13;;;;;;;7.10;100.00;99841.81;5001159;28;20038;-68
2023/10/25 03:03:59;;;;;;;12.85;4.78;;;;;;;7.08;100.00;99846.31;4992714;28;20487;-69
2023/10/25 03:06:25;;;;;;;12.98;4.85;;;;;;;7.04;100.00;99839.88;4980951;28;20052;-68
2023/10/25 03:08:50;;;;;;;12.70;5.13;;;;;;;7.10;100.00;99831.50;4982902;28;20029;-69
2023/10/25 03:11:15;;;;;;;16.08;6.20;;;;;;;7.16;100.00;99825.75;4969791;28;20045;-68
2023/10/25 03:13:41;;;;;;;12.25;5.85;;;;;;;7.18;100.00;99826.38;4984342;28;21647;-68
2023/10/25 03:16:06;;;;;;;10.98;4.82;;;;;;;7.09;100.00;99828.13;4995908;28;20621;-68
2023/10/25 03:18:33;;;;;;;8.25;5.13;;;;;;;7.19;100.00;99822.84;4969281;28;22065;-68
2023/10/25 03:21:02;;;;;;;18.98;5.70;;;;;;;7.15;100.00;99819.75;4978243;28;20050;-69
2023/10/25 03:23:30;;;;;;;20.08;7.05;;;;;;;7.28;100.00;99814.16;4981133;28;20042;-68
2023/10/25 03:25:57;;;;;;;7.97;4.60;;;;;;;7.20;100.00;99814.16;4983568;28;20045;-68
2023/10/25 03:28:22;;;;;;;18.42;5.65;;;;;;;7.24;100.00;99820.59;4981230;28;20088;-68
2023/10/25 03:30:48;;;;;;;15.30;5.35;;;;;;;7.16;100.00;99811.06;4970833;28;20476;-68
2023/10/25 03:33:13;;;;;;;7.82;5.15;;;;;;;7.16;100.00;99815.44;4982964;28;20042;-68
2023/10/25 03:35:39;;;;;;;13.57;5.20;;;;;;;7.12;100.00;99812.34;4982645;28;20038;-68
2023/10/25 03:38:04;;;;;;;18.17;5.32;;;;;;;7.11;100.00;99823.63;4999809;28;20045;-68
2023/10/25 03:40:30;;;;;;;19.45;6.00;;;;;;;7.11;100.00;99818.47;4983538;28;20408;-68
2023/10/25 03:42:55;;;;;;;11.75;5.68;;;;;;;7.30;100.00;99824.31;4999631;28;20022;-68
2023/10/25 03:45:20;;;;;;;9.02;4.80;;;;;;;7.24;100.00;99812.06;4966507;28;20033;-68
2023/10/25 03:47:46;;;;;;;10.45;4.75;;;;;;;7.28;100.00;99811.56;4967835;28;20388;-68
2023/10/25 03:50:15;;;;;;;14.07;5.15;;;;;;;7.24;100.00;99817.22;4981576;28;22829;-69
2023/10/25 03:52:40;;;;;;;9.98;4.97;;;;;;;7.15;100.00;99817.19;4982015;28;20041;-68
2023/10/25 03:55:07;;;;;;;11.95;5.45;;;;;;;7.25;100.00;99805.91;4966068;28;20045;-68
2023/10/25 03:57:32;;;;;;;9.75;5.07;;;;;;;7.30;100.00;99803.69;4977196;28;20404;-68
2023/10/25 03:59:58;;;;;;;12.43;5.40;;;;;;;7.28;100.00;99805.63;4980033;28;20038;-69
2023/10/25 04:02:23;;;;;;;11.68;5.07;;;;;;;7.19;100.00;99808.16;5003928;28;20325;-68
2023/10/25 04:04:49;;;;;;;11.18;4.95;;;;;;;7.20;100.00;99802.06;4970616;28;20396;-68
2023/10/25 04:07:14;;;;;;;9.85;5.50;;;;;;;7.31;100.00;99790.63;4999766;28;20046;-68
2023/10/25 04:09:40;;;;;;;8.50;5.13;;;;;;;7.38;100.00;99789.03;4985885;28;20034;-68
2023/10/25 04:12:11;;;;;;;9.32;4.53;;;;;;;7.34;100.00;99782.56;5000296;28;20423;-68
2023/10/25 04:14:38;;;;;;;20.05;5.15;;;;;;;7.40;100.00;99781.94;4986881;28;20477;-68
2023/10/25 04:17:04;;;;;;;12.70;4.90;;;;;;;7.34;100.00;99779.97;5002590;28;20069;-69
2023/10/25 04:19:29;;;;;;;10.05;4.78;;;;;;;7.35;100.00;99780.81;4975833;28;20033;-68
2023/10/25 04:21:54;;;;;;;11.70;5.28;;;;;;;7.30;100.00;99770.16;4972284;28;20682;-68
2023/10/25 04:24:20;;;;;;;13.65;5.60;;;;;;;7.33;100.00;99772.44;4988651;28;20038;-68
2023/10/25 04:26:45;;;;;;;14.38;5.97;;;;;;;7.35;100.00;99766.13;4981341;28;20034;-68
2023/10/25 04:29:11;;;;;;;16.42;5.50;;;;;;;7.43;100.00;99770.50;4983053;28;20058;-68
2023/10/25 04:31:37;;;;;;;13.65;5.40;;;;;;;7.37;100.00;99766.78;5000535;28;20042;-69
2023/10/25 04:34:02;;;;;;;12.13;5.32;;;;;;;7.43;100.00;99760.19;5004881;28;20037;-68
2023/10/25 04:36:28;;;;;;;15.30;5.90;;;;;;;7.40;100.00;99765.63;5000907;28;20034;-68
2023/10/25 04:38:53;;;;;;;14.70;6.03;;;;;;;7.37;100.00;99764.19;4995815;28;20061;-68
2023/10/25 04:41:19;;;;;;;11.27;5.93;;;;;;;7.43;100.00;99764.53;5000537;28;20050;-68
2023/10/25 04:43:44;;;;;;;14.02;6.55;;;;;;;7.44;100.00;99753.22;5001099;28;20494;-68
2023/10/25 04:46:15;;;;;;;13.60;6.18;;;;;;;7.44;100.00;99742.91;4967900;28;20046;-68
2023/10/25 04:48:40;;;;;;;10.30;5.78;;;;;;;7.38;100.00;99742.63;5002434;28;20150;-68
2023/10/25 04:51:07;;;;;;;19.05;6.53;;;;;;;7.33;100.00;99738.91;4986030;28;20129;-68
2023/10/25 04:53:32;;;;;;;14.82;5.72;;;;;;;7.51;100.00;99743.88;5000421;28;20977;-68
2023/10/25 04:55:58;;;;;;;9.38;5.53;;;;;;;7.44;100.00;99736.00;5000893;28;20042;-68
2023/10/25 04:58:26;;;;;;;13.38;5.93;;;;;;;7.40;100.00;99740.69;4983866;28;20467;-68
2023/10/25 05:00:51;;;;;;;14.70;6.28;;;;;;;7.37;100.00;99732.44;4982740;28;20477;-68
2023/10/25 05:03:17;;;;;;;15.73;5.75;;;;;;;7.34;100.00;99730.97;4987807;28;20028;-68
2023/10/25 05:05:43;;;;;;;15.15;6.13;;;;;;;7.36;100.00;99734.19;5004248;28;20045;-68
2023/10/25 05:08:09;;;;;;;19.95;5.63;;;;;;;7.35;100.00;99735.19;4987203;28;20747;-68
2023/10/25 05:10:35;;;;;;;10.52;5.18;;;;;;;7.33;100.00;99738.91;4999375;28;20049;-68
2023/10/25 05:13:00;;;;;;;14.63;5.55;;;;;;;7.38;100.00;99732.28;4989835;28;20041;-68
2023/10/25 05:15:28;;;;;;;17.52;5.60;;;;;;;7.44;100.00;99738.59;5002254;28;20038;-68
2023/10/25 05:17:54;;;;;;;12.18;4.93;;;;;;;7.44;100.00;99741.16;5003200;28;20042;-68
2023/10/25 05:20:19;;;;;;;12.02;4.82;;;;;;;7.40;100.00;99737.28;5004318;28;20045;-69
2023/10/25 05:22:50;;;;;;;12.48;5.07;;;;;;;7.47;100.00;99727.94;4988059;28;20041;-68
2023/10/25 05:25:16;;;;;;;13.52;5.55;;;;;;;7.44;100.00;99719.69;5003237;28;20057;-68
2023/10/25 05:27:42;;;;;;;12.73;5.80;;;;;;;7.43;100.00;99721.47;4987596;28;20488;-68
2023/10/25 05:30:09;;;;;;;14.02;6.20;;;;;;;7.47;100.00;99715.03;4999502;28;20088;-68
2023/10/25 05:32:37;;;;;;;9.40;5.37;;;;;;;7.42;100.00;99709.53;4998633;28;20057;-68
2023/10/25 05:35:07;;;;;;;13.18;6.07;;;;;;;7.41;100.00;99711.31;4985706;28;20021;-68
2023/10/25 05:37:33;;;;;;;10.27;6.05;;;;;;;7.42;100.00;99704.38;5002855;28;20480;-68
2023/10/25 05:39:58;;;;;;;10.02;5.47;;;;;;;7.39;100.00;99702.16;5002704;28;20057;-68
2023/10/25 05:42:25;;;;;;;12.30;7.00;;;;;;;7.41;100.00;99697.63;5002078;28;20069;-68
2023/10/25 05:44:53;;;;;;;13.95;6.32;;;;;;;7.49;100.00;99695.03;5004873;28;20416;-68
2023/10/25 05:47:28;;;;;;;12.82;5.90;;;;;;;7.54;100.00;99691.97;4998697;28;20042;-68
2023/10/25 05:49:54;;;;;;;12.20;6.50;;;;;;;7.48;100.00;99690.03;5002229;28;20030;-68
2023/10/25 05:52:20;;;;;;;11.10;6.47;;;;;;;7.48;100.00;99688.28;5005026;28;20042;-68
2023/10/25 05:54:46;;;;;;;14.80;7.07;;;;;;;7.44;100.00;99692.16;4998703;28;20121;-68
2023/10/25 05:57:13;;;;;;;19.33;7.25;;;;;;;7.49;100.00;99689.06;5001704;28;20038;-68
2023/10/25 05:59:39;;;;;;;15.68;6.97;;;;;;;7.50;100.00;99683.75;4984748;28;20540;-68
2023/10/25 06:02:15;;;;;;;14.60;7.65;;;;;;;7.51;100.00;99667.28;4985336;28;20436;-67
2023/10/25 06:04:44;;;;;;;16.90;7.65;;;;;;;7.45;100.00;99667.97;5004768;28;20060;-68
2023/10/25 06:07:11;;;;;;;14.30;7.28;;;;;;;7.54;100.00;99664.41;5001163;28;20725;-67
2023/10/25 06:09:37;;;;;;;15.48;7.95;;;;;;;7.46;100.00;99661.84;5004974;28;20088;-67
2023/10/25 06:12:03;;;;;;;15.00;8.15;;;;;;;7.50;100.00;99660.53;4982228;28;20046;-67
2023/10/25 06:14:31;;;;;;;16.02;7.78;;;;;;;7.51;100.00;99656.19;4990043;28;20032;-68
2023/10/25 06:16:57;;;;;;;19.38;7.53;;;;;;;7.44;100.00;99655.22;5001977;28;20037;-67
2023/10/25 06:19:23;;;;;;;14.93;7.50;;;;;;;7.55;100.00;99647.97;5001131;28;20156;-67
2023/10/25 06:21:48;;;;;;;16.85;7.10;;;;;;;7.56;100.00;99641.81;5000545;28;20049;-68
2023/10/25 06:24:14;;;;;;;14.48;7.28;;;;;;;7.54;100.00;99636.03;5002400;28;20044;-68
2023/10/25 06:26:39;;;;;;;12.95;7.57;;;;;;;7.48;100.00;99641.84;4984577;28;20037;-68
2023/10/25 06:29:05;;;;;;;11.43;6.63;;;;;;;7.60;100.00;99640.50;4972275;28;20045;-67
2023/10/25 06:31:31;;;;;;;14.80;6.57;;;;;;;7.61;100.00;99633.59;4995041;28;20037;-67
2023/10/25 06:33:56;;;;;;;13.13;6.13;;;;;;;7.60;100.00;99639.72;5002788;28;20041;-67
2023/10/25 06:36:22;;;;;;;15.88;6.75;;;;;;;7.64;100.00;99627.28;5001433;28;21217;-67
2023/10/25 06:38:48;;;;;;;13.02;7.45;;;;;;;7.60;100.00;99616.50;5004989;28;20099;-67
2023/10/25 06:41:17;;;;;;;12.15;6.65;;;;;;;7.63;100.00;99613.59;4983555;28;20041;-67
2023/10/25 06:43:43;;;;;;;14.25;5.18;;;;;;;7.72;100.00;99616.94;5002842;28;20557;-68
2023/10/25 06:46:10;;;;;;;13.27;6.45;;;;;;;7.75;100.00;99608.88;4985720;28;20046;-67
2023/10/25 06:48:36;;;;;;;10.48;5.88;;;;;;;7.76;100.00;99611.31;4999334;28;20081;-68
2023/10/25 06:51:05;;;;;;;15.45;5.57;;;;;;;7.73;100.00;99601.31;5002721;28;20038;-68
2023/10/25 06:53:32;;;;;;;8.93;5.13;;;;;;;7.83;100.00;99593.34;4997642;28;20034;-67
2023/10/25 06:55:59;;;;;;;12.43;5.45;;;;;;;7.77;100.00;99592.25;4986017;28;20121;-67
2023/10/25 06:58:25;;;;;;;12.35;5.00;;;;;;;7.80;100.00;99585.97;5000505;28;20120;-67
2023/10/25 07:00:50;;;;;;;10.38;5.60;;;;;;;7.79;100.00;99585.16;5000618;28;20124;-67
2023/10/25 07:03:20;;;;;;;11.57;5.43;;;;;;;7.71;100.00;99567.13;5000284;28;20066;-67
2023/10/25 07:05:46;;;;;;;12.52;5.65;;;;;;;7.81;100.00;99569.50;4990793;28;20173;-67
2023/10/25 07:08:12;;;;;;;11.02;5.50;;;;;;;7.87;100.00;99560.28;4969372;28;20042;-67
2023/10/25 07:10:38;;;;;;;15.45;5.43;;;;;;;7.94;100.00;99556.06;4984544;28;20038;-67
2023/10/25 07:13:04;;;;;;;11.80;5.78;;;;;;;7.83;100.00;99540.94;4997697;28;20512;-67
2023/10/25 07:15:31;;;;;;;11.93;5.00;;;;;;;7.95;100.00;99542.97;4992374;28;20095;-67
2023/10/25 07:17:56;;;;;;;12.30;5.53;;;;;;;7.96;100.00;99548.94;4999660;28;20038;-67
2023/10/25 07:20:22;;;;;;;15.80;5.88;;;;;;;8.06;100.00;99543.56;5003212;28;20119;-67
2023/10/25 07:22:48;;;;;;;11.18;4.85;;;;;;;8.01;100.00;99538.13;4999492;28;20050;-68
2023/10/25 07:25:13;;;;;;;11.48;5.18;;;;;;;8.04;100.00;99533.41;4982764;28;20038;-68
2023/10/25 07:27:39;;;;;;;9.50;5.57;;;;;;;8.07;100.00;99530.50;5000485;28;20117;-67
2023/10/25 07:30:05;;;;;;;11.00;5.78;;;;;;;7.98;100.00;99529.72;4983575;28;20030;-67
2023/10/25 07:32:31;;;;;;;11.75;5.25;;;;;;;8.07;100.00;99517.59;4984005;28;20042;-67
2023/10/25 07:34:57;;;;;;;14.93;5.45;;;;;;;8.05;100.00;99523.91;4986796;28;20120;-67
2023/10/25 07:37:22;;;;;;;12.77;5.28;;;;;;;8.04;100.00;99517.91;4998490;28;20022;-67
2023/10/25 07:39:48;;;;;;;10.40;5.00;;;;;;;8.11;100.00;99510.31;5004421;28;20030;-67
2023/10/25 07:42:13;;;;;;;9.55;5.78;;;;;;;8.07;100.00;99512.41;5000453;28;21505;-67
2023/10/25 07:44:39;;;;;;;15.07;5.93;;;;;;;8.17;100.00;99510.44;4984336;28;20030;-68
2023/10/25 07:47:04;;;;;;;12.32;5.82;;;;;;;8.24;100.00;99507.94;4988579;28;20065;-67
2023/10/25 07:49:34;;;;;;;17.60;6.00;;;;;;;8.34;100.00;99497.38;4985371;28;20042;-67
2023/10/25 07:52:00;;;;;;;9.75;5.85;;;;;;;8.35;100.00;99491.25;4997046;28;20050;-67
2023/10/25 07:54:25;;;;;;;16.13;5.45;;;;;;;8.41;100.00;99493.13;4985682;28;20049;-67
2023/10/25 07:56:51;;;;;;;12.98;5.25;;;;;;;8.37;100.00;99494.47;4977942;28;20048;-67
2023/10/25 07:59:16;;;;;;;13.25;5.78;;;;;;;8.36;100.00;99485.09;4998945;28;20479;-67
2023/10/25 08:01:42;;;;;;;13.27;5.45;;;;;;;8.34;100.00;99493.03;4981420;28;20455;-67
2023/10/25 08:04:08;;;;;;;11.23;5.05;;;;;;;8.41;100.00;99479.44;4985113;28;20037;-67
2023/10/25 08:06:34;;;;;;;11.02;5.10;;;;;;;8.48;100.00;99488.13;4990956;28;20046;-67
2023/10/25 08:08:59;;;;;;;8.60;4.30;;;;;;;8.54;100.00;99477.88;4981631;28;20098;-67
2023/10/25 08:11:25;;;;;;;11.38;4.28;;;;;;;8.65;100.00;99468.91;4981570;28;20041;-67
2023/10/25 08:13:50;;;;;;;11.95;4.70;;;;;;;8.63;100.00;99457.16;4993386;28;20034;-67
2023/10/25 08:16:16;;;;;;;8.73;4.03;;;;;;;8.70;100.00;99447.69;4995659;28;20659;-68
2023/10/25 08:18:41;;;;;;;5.63;3.80;;;;;;;8.77;100.00;99449.41;4995648;28;20507;-67
2023/10/25 08:21:12;;;;;;;10.52;4.05;;;;;;;8.91;100.00;99455.56;4968961;28;20042;-68
2023/10/25 08:23:38;;;;;;;6.25;4.38;;;;;;;8.89;100.00;99462.72;4997830;28;20034;-67
2023/10/25 08:26:04;;;;;;;8.38;4.47;;;;;;;8.85;100.00;99471.78;4999177;28;20045;-67
2023/10/25 08:28:29;;;;;;;13.65;4.72;;;;;;;8.94;100.00;99457.00;4998388;28;20034;-68
2023/10/25 08:30:55;;;;;;;15.73;8.68;;;;;;;8.97;100.00;99454.06;4996413;28;20038;-68
2023/10/25 08:33:20;;;;;;;9.20;3.75;;;;;;;9.05;100.00;99448.78;4983311;28;20022;-67
2023/10/25 08:35:46;;;;;;;8.93;4.10;;;;;;;9.03;100.00;99437.84;4980685;28;20041;-67
2023/10/25 08:38:11;;;;;;;7.88;3.90;;;;;;;9.20;100.00;99425.50;5000147;28;20034;-68
2023/10/25 08:40:40;;;;;;;8.38;3.20;;;;;;;9.15;100.00;99417.47;4978966;28;20080;-68
2023/10/25 08:43:07;;;;;;;8.73;3.00;;;;;;;9.21;100.00;99415.97;4998159;28;20038;-68
2023/10/25 08:45:35;;;;;;;7.18;3.28;;;;;;;9.20;100.00;99419.53;4995165;28;20049;-67
2023/10/25 08:48:04;;;;;;;7.32;2.90;;;;;;;9.20;100.00;99428.09;4999450;28;20030;-68
2023/10/25 08:50:31;;;;;;;4.68;2.90;;;;;;;9.13;100.00;99424.63;5016977;23;20076;-67
2023/10/25 08:52:57;;;;;;;15.70;3.38;;;;;;;9.23;100.00;99420.00;5015838;28;20044;-67
2023/10/25 08:55:23;;;;;;;9.57;4.10;;;;;;;9.20;100.00;99435.84;5019867;28;20487;-68
2023/10/25 08:57:54;;;;;;;5.75;2.75;;;;;;;9.18;100.00;99430.06;5018524;28;20049;-68
2023/10/25 09:00:20;;;;;;;6.35;3.50;;;;;;;9.22;100.00;99435.69;5020790;28;20121;-67
2023/10/25 09:02:46;;;;;;;8.98;3.60;;;;;;;9.13;100.00;99435.75;4989792;28;20438;-68
2023/10/25 09:05:11;;;;;;;16.00;3.65;;;;;;;9.26;100.00;99429.16;5002345;28;20052;-68
2023/10/25 09:07:37;;;;;;;8.40;4.13;;;;;;;9.26;100.00;99414.44;4997153;28;20029;-68
2023/10/25 09:10:10;;;;;;;9.50;3.55;;;;;;;9.25;100.00;99405.09;4992878;28;20045;-69
2023/10/25 09:12:35;;;;;;;8.77;2.85;;;;;;;9.29;100.00;99397.78;5002860;28;20048;-68
2023/10/25 09:15:01;;;;;;;10.15;2.88;;;;;;;9.25;100.00;99399.09;4999615;28;20038;-68
2023/10/25 09:17:27;;;;;;;6.63;2.85;;;;;;;9.15;100.00;99384.69;5003619;28;20043;-68
2023/10/25 09:19:52;;;;;;;10.70;3.92;;;;;;;9.13;100.00;99367.72;5007647;28;20037;-68
2023/10/25 09:22:25;;;;;;;8.43;2.58;;;;;;;9.17;100.00;99371.56;5010191;28;20030;-67
2023/10/25 09:24:52;;;;;;;7.07;3.08;;;;;;;9.15;100.00;99358.81;5004451;28;20044;-68
2023/10/25 09:27:19;;;;;;;7.50;2.53;;;;;;;9.25;100.00;99355.13;5013098;28;20037;-68
2023/10/25 09:29:44;;;;;;;6.65;2.40;;;;;;;9.19;100.00;99346.31;5013307;28;20032;-68
2023/10/25 09:32:10;;;;;;;5.35;2.70;;;;;;;9.21;100.00;99339.19;4999995;28;20431;-68
2023/10/25 09:34:38;;;;;;;11.15;2.50;;;;;;;9.21;100.00;99346.13;4988292;28;20034;-68
2023/10/25 09:37:04;;;;;;;5.68;2.00;;;;;;;9.24;100.00;99335.44;5002659;28;20041;-68
2023/10/25 09:39:32;;;;;;;4.47;1.80;;;;;;;9.32;100.00;99335.31;5020160;28;20037;-67
2023/10/25 09:42:02;;;;;;;9.13;2.22;;;;;;;9.31;100.00;99325.97;4993491;28;20036;-67
2023/10/25 09:44:31;;;;;;;5.97;2.47;;;;;;;9.31;100.00;99321.56;4975834;28;20443;-68
2023/10/25 09:46:59;;;;;;;6.25;2.15;;;;;;;9.29;100.00;99308.03;4996302;28;20037;-67
2023/10/25 09:49:29;;;;;;;8.38;2.03;;;;;;;9.33;100.00;99298.13;4997843;28;20045;-68
2023/10/25 09:52:05;;;;;;;4.53;2.25;;;;;;;9.45;100.00;99290.66;4985033;28;20041;-68
2023/10/25 09:54:36;;;;;;;11.20;2.47;;;;;;;9.44;100.00;99282.09;5002330;28;20034;-67
2023/10/25 09:57:06;;;;;;;7.10;2.55;;;;;;;9.41;100.00;99274.69;4985662;28;20059;-68
2023/10/25 09:59:33;;;;;;;6.88;2.38;;;;;;;9.43;100.00;99274.53;5003804;28;20037;-68
2023/10/25 10:02:01;;;;;;;5.13;2.20;;;;;;;9.40;100.00;99267.13;4981891;28;20068;-68
2023/10/25 10:04:35;;;;;;;7.32;1.90;;;;;;;9.38;100.00;99264.75;5002035;28;20472;-68
2023/10/25 10:07:03;;;;;;;5.65;2.00;;;;;;;9.42;100.00;99260.78;5002736;28;20041;-68
2023/10/25 10:09:47;;;;;;;6.85;2.10;;;;;;;9.52;100.00;99256.09;5002797;28;20968;-68
2023/10/25 10:12:13;;;;;;;8.48;2.05;;;;;;;9.57;100.00;99240.03;5014102;28;20050;-68
2023/10/25 10:14:38;;;;;;;4.68;1.65;;;;;;;9.58;100.00;99241.59;5019648;28;20033;-68
2023/10/25 10:17:08;;;;;;;3.70;1.73;;;;;;;9.49;100.00;99235.78;4990758;28;20120;-67
2023/10/25 10:19:37;;;;;;;2.67;1.50;;;;;;;9.52;100.00;99237.97;4990015;28;20084;-67
2023/10/25 10:22:04;;;;;;;5.63;1.73;;;;;;;9.55;100.00;99229.84;4981344;28;20621;-68
2023/10/25 10:24:42;;;;;;;4.22;1.58;;;;;;;9.58;100.00;99223.50;4977171;28;20026;-68
2023/10/25 10:27:09;;;;;;;3.05;1.75;;;;;;;9.57;100.00;99205.56;4991944;28;20401;-68
2023/10/25 10:29:35;;;;;;;2.67;1.65;;;;;;;9.63;100.00;99202.25;4994548;28;20042;-68
2023/10/25 10:32:05;;;;;;;4.65;1.60;;;;;;;9.65;100.00;99190.72;4994962;28;20128;-68
2023/10/25 10:34:47;;;;;;;8.15;1.95;;;;;;;9.65;100.00;99205.44;4998243;28;20041;-68
2023/10/25 10:37:20;;;;;;;9.38;1.70;;;;;;;9.73;100.00;99189.75;4968277;28;20180;-68
2023/10/25 10:39:58;;;;;;;5.38;1.98;;;;;;;9.80;100.00;99193.19;4984990;28;20026;-68
2023/10/25 10:42:33;;;;;;;7.03;2.08;;;;;;;9.73;100.00;99192.34;4978025;28;20069;-68
2023/10/25 10:45:04;;;;;;;4.15;1.92;;;;;;;9.75;100.00;99191.16;4993302;28;20577;-68
2023/10/25 10:47:39;;;;;;;6.95;1.90;;;;;;;9.79;100.00;99183.03;4985436;28;20030;-68
2023/10/25 10:50:16;;;;;;;3.88;2.00;;;;;;;9.72;100.00;99180.41;4996746;28;20530;-67
2023/10/25 10:52:44;;;;;;;6.07;1.63;;;;;;;9.79;100.00;99181.22;5003970;28;20526;-67
2023/10/25 10:55:14;;;;;;;6.65;2.47;;;;;;;9.79;100.00;99172.66;5014666;28;20042;-68
2023/10/25 10:57:40;;;;;;;5.60;1.80;;;;;;;9.82;100.00;99165.31;5019720;28;20091;-68
2023/10/25 11:00:10;;;;;;;5.93;1.98;;;;;;;9.82;100.00;99165.31;4997692;28;20030;-68
2023/10/25 11:02:40;;;;;;;5.15;1.90;;;;;;;9.81;100.00;99160.34;5000849;28;20033;-68
2023/10/25 11:05:06;;;;;;;4.80;1.63;;;;;;;9.90;100.00;99159.97;4997532;28;20045;-68
2023/10/25 11:07:32;;;;;;;5.88;2.28;;;;;;;9.91;100.00;99153.81;5000533;28;20034;-68
2023/10/25 11:09:57;;;;;;;7.65;2.38;;;;;;;9.85;100.00;99149.41;5002939;28;20121;-69
2023/10/25 11:12:23;;;;;;;5.93;2.90;;;;;;;9.88;100.00;99151.59;5015690;28;20040;-68
2023/10/25 11:14:49;;;;;;;5.00;2.42;;;;;;;9.90;100.00;99147.03;5012929;28;20026;-68
2023/10/25 11:17:16;;;;;;;4.35;2.40;;;;;;;9.83;100.00;99143.63;5016399;28;20056;-68
2023/10/25 11:19:47;;;;;;;3.85;2.10;;;;;;;9.86;100.00;99140.66;5000225;28;20044;-68
2023/10/25 11:22:13;;;;;;;2.88;2.30;;;;;;;9.88;100.00;99146.44;5016175;28;20060;-68
2023/10/25 11:24:39;;;;;;;5.40;2.58;;;;;;;9.86;100.00;99132.88;4985198;28;20068;-68
2023/10/25 11:27:05;;;;;;;3.80;2.50;;;;;;;9.90;100.00;99126.31;5002492;28;20042;-68